sensor_id;sensor_type;location;lat;lon;timestamp;temperature;humidity
14079;DHT22;7115;50.150;8.568;2023-05-14T00:02:22;14.30;99.90
14079;DHT22;7115;50.150;8.568;2023-05-14T00:04:49;14.30;99.90
14079;DHT22;7115;50.150;8.568;2023-05-14T00:07:16;14.20;99.90
14079;DHT22;7115;50.150;8.568;2023-05-14T00:09:43;14.20;99.90
14079;DHT22;7115;50.150;8.568;2023-05-14T00:12:10;14.20;99.90
14079;DHT22;7115;50.150;8.568;2023-05-14T00:14:37;14.20;99.90
14079;DHT22;7115;50.150;8.568;2023-05-14T00:17:05;14.20;99.90
14079;DHT22;7115;50.150;8.568;2023-05-14T00:19:32;14.20;99.90
14079;DHT22;7115;50.150;8.568;2023-05-14T00:22:00;14.40;99.90
14079;DHT22;7115;50.150;8.568;2023-05-14T00:24:26;14.30;99.90
14079;DHT22;7115;50.150;8.568;2023-05-14T00:26:53;14.30;99.90
14079;DHT22;7115;50.150;8.568;2023-05-14T00:29:20;14.20;99.90
14079;DHT22;7115;50.150;8.568;2023-05-14T00:31:47;14.20;99.90
14079;DHT22;7115;50.150;8.568;2023-05-14T00:34:15;14.10;99.90
14079;DHT22;7115;50.150;8.568;2023-05-14T00:36:42;14.10;99.90
14079;DHT22;7115;50.150;8.568;2023-05-14T00:39:09;14.00;99.90
14079;DHT22;7115;50.150;8.568;2023-05-14T00:41:36;13.90;99.90
14079;DHT22;7115;50.150;8.568;2023-05-14T00:44:03;13.80;99.90
14079;DHT22;7115;50.150;8.568;2023-05-14T00:46:30;13.80;99.90
14079;DHT22;7115;50.150;8.568;2023-05-14T00:48:57;13.70;99.90
14079;DHT22;7115;50.150;8.568;2023-05-14T00:51:26;13.70;99.90
14079;DHT22;7115;50.150;8.568;2023-05-14T00:53:54;13.60;99.90
14079;DHT22;7115;50.150;8.568;2023-05-14T00:56:21;13.60;99.90
14079;DHT22;7115;50.150;8.568;2023-05-14T00:58:48;13.60;99.90
14079;DHT22;7115;50.150;8.568;2023-05-14T01:01:15;13.50;99.90
14079;DHT22;7115;50.150;8.568;2023-05-14T01:03:42;13.50;99.90
14079;DHT22;7115;50.150;8.568;2023-05-14T01:06:17;13.40;99.90
14079;DHT22;7115;50.150;8.568;2023-05-14T01:08:55;13.40;99.90
14079;DHT22;7115;50.150;8.568;2023-05-14T01:11:28;13.40;99.90
14079;DHT22;7115;50.150;8.568;2023-05-14T01:14:02;13.30;99.90
14079;DHT22;7115;50.150;8.568;2023-05-14T01:16:33;13.30;99.90
14079;DHT22;7115;50.150;8.568;2023-05-14T01:19:01;13.30;99.90
14079;DHT22;7115;50.150;8.568;2023-05-14T01:21:36;13.30;99.90
14079;DHT22;7115;50.150;8.568;2023-05-14T01:24:05;13.20;99.90
14079;DHT22;7115;50.150;8.568;2023-05-14T01:26:32;13.20;99.90
14079;DHT22;7115;50.150;8.568;2023-05-14T01:29:01;13.20;99.90
14079;DHT22;7115;50.150;8.568;2023-05-14T01:31:30;13.00;99.90
14079;DHT22;7115;50.150;8.568;2023-05-14T01:34:00;13.10;99.90
14079;DHT22;7115;50.150;8.568;2023-05-14T01:36:27;13.10;99.90
14079;DHT22;7115;50.150;8.568;2023-05-14T01:38:57;13.10;99.90
14079;DHT22;7115;50.150;8.568;2023-05-14T01:41:25;13.10;99.90
14079;DHT22;7115;50.150;8.568;2023-05-14T01:43:52;13.10;99.90
14079;DHT22;7115;50.150;8.568;2023-05-14T01:46:19;13.00;99.90
14079;DHT22;7115;50.150;8.568;2023-05-14T01:48:46;13.00;99.90
14079;DHT22;7115;50.150;8.568;2023-05-14T01:51:13;13.00;99.90
14079;DHT22;7115;50.150;8.568;2023-05-14T01:53:40;13.00;99.90
14079;DHT22;7115;50.150;8.568;2023-05-14T01:56:08;13.00;99.90
14079;DHT22;7115;50.150;8.568;2023-05-14T01:58:35;12.90;99.90
14079;DHT22;7115;50.150;8.568;2023-05-14T02:01:02;12.90;99.90
14079;DHT22;7115;50.150;8.568;2023-05-14T02:03:29;12.80;99.90
14079;DHT22;7115;50.150;8.568;2023-05-14T02:05:56;12.80;99.90
14079;DHT22;7115;50.150;8.568;2023-05-14T02:08:23;12.80;99.90
14079;DHT22;7115;50.150;8.568;2023-05-14T02:10:50;12.80;99.90
14079;DHT22;7115;50.150;8.568;2023-05-14T02:13:18;12.70;99.90
14079;DHT22;7115;50.150;8.568;2023-05-14T02:15:45;12.70;99.90
14079;DHT22;7115;50.150;8.568;2023-05-14T02:18:12;12.70;99.90
14079;DHT22;7115;50.150;8.568;2023-05-14T02:20:39;12.70;99.90
14079;DHT22;7115;50.150;8.568;2023-05-14T02:23:06;12.70;99.90
14079;DHT22;7115;50.150;8.568;2023-05-14T02:25:33;12.70;99.90
14079;DHT22;7115;50.150;8.568;2023-05-14T02:28:00;12.70;99.90
14079;DHT22;7115;50.150;8.568;2023-05-14T02:30:28;12.70;99.90
14079;DHT22;7115;50.150;8.568;2023-05-14T02:32:56;12.70;99.90
14079;DHT22;7115;50.150;8.568;2023-05-14T02:35:23;12.70;99.90
14079;DHT22;7115;50.150;8.568;2023-05-14T02:37:50;12.70;99.90
14079;DHT22;7115;50.150;8.568;2023-05-14T02:40:17;12.70;99.90
14079;DHT22;7115;50.150;8.568;2023-05-14T02:42:44;12.70;99.90
14079;DHT22;7115;50.150;8.568;2023-05-14T02:45:11;12.60;99.90
14079;DHT22;7115;50.150;8.568;2023-05-14T02:47:39;12.60;99.90
14079;DHT22;7115;50.150;8.568;2023-05-14T02:50:07;12.60;99.90
14079;DHT22;7115;50.150;8.568;2023-05-14T02:52:34;12.60;99.90
14079;DHT22;7115;50.150;8.568;2023-05-14T02:55:01;12.60;99.90
14079;DHT22;7115;50.150;8.568;2023-05-14T02:57:28;12.60;99.90
14079;DHT22;7115;50.150;8.568;2023-05-14T02:59:55;12.60;99.90
14079;DHT22;7115;50.150;8.568;2023-05-14T03:02:22;12.60;99.90
14079;DHT22;7115;50.150;8.568;2023-05-14T03:04:51;12.60;99.90
14079;DHT22;7115;50.150;8.568;2023-05-14T03:07:18;12.60;99.90
14079;DHT22;7115;50.150;8.568;2023-05-14T03:09:45;12.60;99.90
14079;DHT22;7115;50.150;8.568;2023-05-14T03:12:11;12.60;99.90
14079;DHT22;7115;50.150;8.568;2023-05-14T03:14:40;12.60;99.90
14079;DHT22;7115;50.150;8.568;2023-05-14T03:17:06;12.60;99.90
14079;DHT22;7115;50.150;8.568;2023-05-14T03:19:33;12.60;99.90
14079;DHT22;7115;50.150;8.568;2023-05-14T03:22:02;12.60;99.90
14079;DHT22;7115;50.150;8.568;2023-05-14T03:24:29;12.60;99.90
14079;DHT22;7115;50.150;8.568;2023-05-14T03:26:56;12.50;99.90
14079;DHT22;7115;50.150;8.568;2023-05-14T03:29:22;12.50;99.90
14079;DHT22;7115;50.150;8.568;2023-05-14T03:31:49;12.50;99.90
14079;DHT22;7115;50.150;8.568;2023-05-14T03:34:16;12.40;99.90
14079;DHT22;7115;50.150;8.568;2023-05-14T03:36:43;12.50;99.90
14079;DHT22;7115;50.150;8.568;2023-05-14T03:39:11;12.40;99.90
14079;DHT22;7115;50.150;8.568;2023-05-14T03:41:41;12.40;99.90
14079;DHT22;7115;50.150;8.568;2023-05-14T03:44:08;12.40;99.90
14079;DHT22;7115;50.150;8.568;2023-05-14T03:46:34;12.30;99.90
14079;DHT22;7115;50.150;8.568;2023-05-14T03:49:01;12.30;99.90
14079;DHT22;7115;50.150;8.568;2023-05-14T03:51:29;12.30;99.90
14079;DHT22;7115;50.150;8.568;2023-05-14T03:53:57;12.30;99.90
14079;DHT22;7115;50.150;8.568;2023-05-14T03:56:25;12.30;99.90
14079;DHT22;7115;50.150;8.568;2023-05-14T03:58:52;12.30;99.90
14079;DHT22;7115;50.150;8.568;2023-05-14T04:01:19;12.30;99.90
14079;DHT22;7115;50.150;8.568;2023-05-14T04:03:46;12.30;99.90
14079;DHT22;7115;50.150;8.568;2023-05-14T04:06:13;12.20;99.90
14079;DHT22;7115;50.150;8.568;2023-05-14T04:08:40;12.20;99.90
14079;DHT22;7115;50.150;8.568;2023-05-14T04:11:07;12.20;99.90
14079;DHT22;7115;50.150;8.568;2023-05-14T04:13:35;12.10;99.90
14079;DHT22;7115;50.150;8.568;2023-05-14T04:16:02;12.10;99.90
14079;DHT22;7115;50.150;8.568;2023-05-14T04:18:29;12.00;99.90
14079;DHT22;7115;50.150;8.568;2023-05-14T04:20:56;12.00;99.90
14079;DHT22;7115;50.150;8.568;2023-05-14T04:23:23;12.00;99.90
14079;DHT22;7115;50.150;8.568;2023-05-14T04:25:50;12.00;99.90
14079;DHT22;7115;50.150;8.568;2023-05-14T04:28:16;11.90;99.90
14079;DHT22;7115;50.150;8.568;2023-05-14T04:30:45;11.90;99.90
14079;DHT22;7115;50.150;8.568;2023-05-14T04:33:12;11.90;99.90
14079;DHT22;7115;50.150;8.568;2023-05-14T04:35:38;11.90;99.90
14079;DHT22;7115;50.150;8.568;2023-05-14T04:38:05;11.90;99.90
14079;DHT22;7115;50.150;8.568;2023-05-14T04:40:32;11.90;99.90
14079;DHT22;7115;50.150;8.568;2023-05-14T04:42:59;11.90;99.90
14079;DHT22;7115;50.150;8.568;2023-05-14T04:45:26;11.90;99.90
14079;DHT22;7115;50.150;8.568;2023-05-14T04:47:54;11.90;99.90
14079;DHT22;7115;50.150;8.568;2023-05-14T04:50:21;12.00;99.90
14079;DHT22;7115;50.150;8.568;2023-05-14T04:52:48;12.00;99.90
14079;DHT22;7115;50.150;8.568;2023-05-14T04:55:15;12.00;99.90
14079;DHT22;7115;50.150;8.568;2023-05-14T04:57:42;12.10;99.90
14079;DHT22;7115;50.150;8.568;2023-05-14T05:00:10;12.10;99.90
14079;DHT22;7115;50.150;8.568;2023-05-14T05:02:37;12.20;99.90
14079;DHT22;7115;50.150;8.568;2023-05-14T05:05:06;12.20;99.90
14079;DHT22;7115;50.150;8.568;2023-05-14T05:07:32;12.20;99.90
14079;DHT22;7115;50.150;8.568;2023-05-14T05:09:59;12.30;99.90
14079;DHT22;7115;50.150;8.568;2023-05-14T05:12:26;12.30;99.90
14079;DHT22;7115;50.150;8.568;2023-05-14T05:14:55;12.30;99.90
14079;DHT22;7115;50.150;8.568;2023-05-14T05:17:23;12.40;99.90
14079;DHT22;7115;50.150;8.568;2023-05-14T05:19:50;12.40;99.90
14079;DHT22;7115;50.150;8.568;2023-05-14T05:22:18;12.50;99.90
14079;DHT22;7115;50.150;8.568;2023-05-14T05:24:45;12.60;99.90
14079;DHT22;7115;50.150;8.568;2023-05-14T05:27:15;12.60;99.90
14079;DHT22;7115;50.150;8.568;2023-05-14T05:29:42;12.70;99.90
14079;DHT22;7115;50.150;8.568;2023-05-14T05:32:09;12.80;99.90
14079;DHT22;7115;50.150;8.568;2023-05-14T05:34:36;12.90;99.90
14079;DHT22;7115;50.150;8.568;2023-05-14T05:37:03;12.90;99.90
14079;DHT22;7115;50.150;8.568;2023-05-14T05:39:33;13.00;99.90
14079;DHT22;7115;50.150;8.568;2023-05-14T05:42:01;13.10;99.90
14079;DHT22;7115;50.150;8.568;2023-05-14T05:44:28;13.10;99.90
14079;DHT22;7115;50.150;8.568;2023-05-14T05:46:55;13.20;99.90
14079;DHT22;7115;50.150;8.568;2023-05-14T05:49:23;13.30;99.90
14079;DHT22;7115;50.150;8.568;2023-05-14T05:51:50;13.40;99.90
14079;DHT22;7115;50.150;8.568;2023-05-14T05:54:16;13.50;99.90
14079;DHT22;7115;50.150;8.568;2023-05-14T05:56:45;13.60;99.90
14079;DHT22;7115;50.150;8.568;2023-05-14T05:59:11;13.60;99.90
14079;DHT22;7115;50.150;8.568;2023-05-14T06:01:38;13.70;99.90
14079;DHT22;7115;50.150;8.568;2023-05-14T06:04:06;13.70;99.90
14079;DHT22;7115;50.150;8.568;2023-05-14T06:06:33;13.80;99.90
14079;DHT22;7115;50.150;8.568;2023-05-14T06:09:00;13.90;99.90
14079;DHT22;7115;50.150;8.568;2023-05-14T06:11:27;14.00;99.90
14079;DHT22;7115;50.150;8.568;2023-05-14T06:13:55;14.10;99.90
14079;DHT22;7115;50.150;8.568;2023-05-14T06:16:22;14.20;99.90
14079;DHT22;7115;50.150;8.568;2023-05-14T06:18:49;14.40;99.90
14079;DHT22;7115;50.150;8.568;2023-05-14T06:21:18;14.50;99.90
14079;DHT22;7115;50.150;8.568;2023-05-14T06:23:44;14.60;99.90
14079;DHT22;7115;50.150;8.568;2023-05-14T06:26:11;14.70;99.90
14079;DHT22;7115;50.150;8.568;2023-05-14T06:28:38;14.80;99.90
14079;DHT22;7115;50.150;8.568;2023-05-14T06:31:06;14.90;99.90
14079;DHT22;7115;50.150;8.568;2023-05-14T06:33:33;15.00;99.90
14079;DHT22;7115;50.150;8.568;2023-05-14T06:36:03;15.00;99.90
14079;DHT22;7115;50.150;8.568;2023-05-14T06:38:30;15.10;99.90
14079;DHT22;7115;50.150;8.568;2023-05-14T06:40:57;15.20;99.90
14079;DHT22;7115;50.150;8.568;2023-05-14T06:43:24;15.40;99.90
14079;DHT22;7115;50.150;8.568;2023-05-14T06:45:51;15.50;99.90
14079;DHT22;7115;50.150;8.568;2023-05-14T06:48:20;15.70;99.90
14079;DHT22;7115;50.150;8.568;2023-05-14T06:50:48;15.80;99.90
14079;DHT22;7115;50.150;8.568;2023-05-14T06:53:15;16.00;99.90
14079;DHT22;7115;50.150;8.568;2023-05-14T06:55:42;16.20;99.90
14079;DHT22;7115;50.150;8.568;2023-05-14T06:58:09;16.30;99.90
14079;DHT22;7115;50.150;8.568;2023-05-14T07:00:36;16.40;99.90
14079;DHT22;7115;50.150;8.568;2023-05-14T07:03:03;16.50;99.90
14079;DHT22;7115;50.150;8.568;2023-05-14T07:05:31;16.60;99.90
14079;DHT22;7115;50.150;8.568;2023-05-14T07:07:58;16.70;99.90
14079;DHT22;7115;50.150;8.568;2023-05-14T07:10:25;16.80;99.90
14079;DHT22;7115;50.150;8.568;2023-05-14T07:12:52;16.90;99.90
14079;DHT22;7115;50.150;8.568;2023-05-14T07:15:19;17.00;99.90
14079;DHT22;7115;50.150;8.568;2023-05-14T07:17:47;17.20;99.90
14079;DHT22;7115;50.150;8.568;2023-05-14T07:20:14;17.30;99.90
14079;DHT22;7115;50.150;8.568;2023-05-14T07:22:42;17.40;99.90
14079;DHT22;7115;50.150;8.568;2023-05-14T07:25:09;17.60;99.90
14079;DHT22;7115;50.150;8.568;2023-05-14T07:27:36;17.70;99.90
14079;DHT22;7115;50.150;8.568;2023-05-14T07:30:03;17.80;99.90
14079;DHT22;7115;50.150;8.568;2023-05-14T07:32:30;17.80;99.90
14079;DHT22;7115;50.150;8.568;2023-05-14T07:34:57;17.80;99.90
14079;DHT22;7115;50.150;8.568;2023-05-14T07:37:24;17.80;99.90
14079;DHT22;7115;50.150;8.568;2023-05-14T07:39:53;17.90;99.90
14079;DHT22;7115;50.150;8.568;2023-05-14T07:42:19;17.90;99.90
14079;DHT22;7115;50.150;8.568;2023-05-14T07:45:01;18.00;99.90
14079;DHT22;7115;50.150;8.568;2023-05-14T07:47:29;18.00;99.90
14079;DHT22;7115;50.150;8.568;2023-05-14T07:49:56;18.10;99.90
14079;DHT22;7115;50.150;8.568;2023-05-14T07:52:24;18.10;99.90
14079;DHT22;7115;50.150;8.568;2023-05-14T07:54:52;18.20;99.90
14079;DHT22;7115;50.150;8.568;2023-05-14T07:57:19;18.20;99.90
14079;DHT22;7115;50.150;8.568;2023-05-14T07:59:46;18.20;99.90
14079;DHT22;7115;50.150;8.568;2023-05-14T08:02:13;18.30;99.90
14079;DHT22;7115;50.150;8.568;2023-05-14T08:04:42;18.40;99.90
14079;DHT22;7115;50.150;8.568;2023-05-14T08:07:09;18.50;99.90
14079;DHT22;7115;50.150;8.568;2023-05-14T08:09:36;18.60;99.90
14079;DHT22;7115;50.150;8.568;2023-05-14T08:12:05;18.70;99.90
14079;DHT22;7115;50.150;8.568;2023-05-14T08:14:33;18.80;99.90
14079;DHT22;7115;50.150;8.568;2023-05-14T08:17:00;18.90;99.90
14079;DHT22;7115;50.150;8.568;2023-05-14T08:19:27;19.00;99.90
14079;DHT22;7115;50.150;8.568;2023-05-14T08:21:54;19.10;99.90
14079;DHT22;7115;50.150;8.568;2023-05-14T08:24:20;19.20;99.90
14079;DHT22;7115;50.150;8.568;2023-05-14T08:26:47;19.40;99.90
14079;DHT22;7115;50.150;8.568;2023-05-14T08:29:15;19.50;99.90
14079;DHT22;7115;50.150;8.568;2023-05-14T08:31:42;19.70;99.90
14079;DHT22;7115;50.150;8.568;2023-05-14T08:34:09;19.80;99.90
14079;DHT22;7115;50.150;8.568;2023-05-14T08:36:37;19.80;99.90
14079;DHT22;7115;50.150;8.568;2023-05-14T08:39:04;19.80;99.90
14079;DHT22;7115;50.150;8.568;2023-05-14T08:41:33;19.80;99.90
14079;DHT22;7115;50.150;8.568;2023-05-14T08:44:05;20.10;99.90
14079;DHT22;7115;50.150;8.568;2023-05-14T08:46:36;20.10;99.50
14079;DHT22;7115;50.150;8.568;2023-05-14T08:49:12;20.10;99.40
14079;DHT22;7115;50.150;8.568;2023-05-14T08:51:41;20.20;99.30
14079;DHT22;7115;50.150;8.568;2023-05-14T08:54:09;20.20;99.20
14079;DHT22;7115;50.150;8.568;2023-05-14T08:56:41;20.30;99.10
14079;DHT22;7115;50.150;8.568;2023-05-14T08:59:09;20.20;99.00
14079;DHT22;7115;50.150;8.568;2023-05-14T09:01:38;20.30;99.00
14079;DHT22;7115;50.150;8.568;2023-05-14T09:04:08;20.40;98.90
14079;DHT22;7115;50.150;8.568;2023-05-14T09:06:36;20.50;98.90
14079;DHT22;7115;50.150;8.568;2023-05-14T09:09:03;20.70;98.80
14079;DHT22;7115;50.150;8.568;2023-05-14T09:11:30;21.00;98.60
14079;DHT22;7115;50.150;8.568;2023-05-14T09:13:57;21.10;98.20
14079;DHT22;7115;50.150;8.568;2023-05-14T09:16:24;21.20;98.00
14079;DHT22;7115;50.150;8.568;2023-05-14T09:18:54;21.30;98.20
14079;DHT22;7115;50.150;8.568;2023-05-14T09:21:21;21.40;97.70
14079;DHT22;7115;50.150;8.568;2023-05-14T09:23:52;21.30;97.60
14079;DHT22;7115;50.150;8.568;2023-05-14T09:26:22;21.00;97.30
14079;DHT22;7115;50.150;8.568;2023-05-14T09:28:52;21.10;97.30
14079;DHT22;7115;50.150;8.568;2023-05-14T09:31:20;21.00;97.00
14079;DHT22;7115;50.150;8.568;2023-05-14T09:33:49;20.90;97.00
14079;DHT22;7115;50.150;8.568;2023-05-14T09:36:18;20.70;97.00
14079;DHT22;7115;50.150;8.568;2023-05-14T09:38:55;20.70;97.10
14079;DHT22;7115;50.150;8.568;2023-05-14T09:41:22;20.80;97.20
14079;DHT22;7115;50.150;8.568;2023-05-14T09:43:49;20.90;97.20
14079;DHT22;7115;50.150;8.568;2023-05-14T09:46:17;20.90;97.00
14079;DHT22;7115;50.150;8.568;2023-05-14T09:48:44;20.90;96.80
14079;DHT22;7115;50.150;8.568;2023-05-14T09:51:12;20.90;96.80
14079;DHT22;7115;50.150;8.568;2023-05-14T09:53:39;21.00;96.80
14079;DHT22;7115;50.150;8.568;2023-05-14T09:56:08;21.00;96.70
14079;DHT22;7115;50.150;8.568;2023-05-14T09:58:35;21.00;96.60
14079;DHT22;7115;50.150;8.568;2023-05-14T10:01:02;21.00;96.60
14079;DHT22;7115;50.150;8.568;2023-05-14T10:03:30;20.80;96.50
14079;DHT22;7115;50.150;8.568;2023-05-14T10:06:02;20.70;96.40
14079;DHT22;7115;50.150;8.568;2023-05-14T10:08:32;20.60;96.50
14079;DHT22;7115;50.150;8.568;2023-05-14T10:11:01;20.60;96.50
14079;DHT22;7115;50.150;8.568;2023-05-14T10:13:35;20.50;96.60
14079;DHT22;7115;50.150;8.568;2023-05-14T10:16:07;20.50;96.60
14079;DHT22;7115;50.150;8.568;2023-05-14T10:18:39;20.50;96.50
14079;DHT22;7115;50.150;8.568;2023-05-14T10:21:07;20.60;96.50
14079;DHT22;7115;50.150;8.568;2023-05-14T10:23:36;20.50;96.50
14079;DHT22;7115;50.150;8.568;2023-05-14T10:26:04;20.50;96.50
14079;DHT22;7115;50.150;8.568;2023-05-14T10:28:33;20.40;96.70
14079;DHT22;7115;50.150;8.568;2023-05-14T10:31:01;20.30;96.50
14079;DHT22;7115;50.150;8.568;2023-05-14T10:33:28;20.20;96.40
14079;DHT22;7115;50.150;8.568;2023-05-14T10:35:56;20.20;96.40
14079;DHT22;7115;50.150;8.568;2023-05-14T10:38:26;20.20;96.50
14079;DHT22;7115;50.150;8.568;2023-05-14T10:41:01;20.20;96.50
14079;DHT22;7115;50.150;8.568;2023-05-14T10:43:29;20.10;96.30
14079;DHT22;7115;50.150;8.568;2023-05-14T10:45:59;20.10;96.40
14079;DHT22;7115;50.150;8.568;2023-05-14T10:48:26;20.00;96.40
14079;DHT22;7115;50.150;8.568;2023-05-14T10:50:53;19.90;96.40
14079;DHT22;7115;50.150;8.568;2023-05-14T10:53:30;19.90;96.60
14079;DHT22;7115;50.150;8.568;2023-05-14T10:56:02;20.00;96.70
14079;DHT22;7115;50.150;8.568;2023-05-14T10:58:30;20.00;96.80
14079;DHT22;7115;50.150;8.568;2023-05-14T11:01:02;20.20;96.90
14079;DHT22;7115;50.150;8.568;2023-05-14T11:03:29;20.30;96.80
14079;DHT22;7115;50.150;8.568;2023-05-14T11:05:59;20.40;96.70
14079;DHT22;7115;50.150;8.568;2023-05-14T11:08:28;20.50;96.50
14079;DHT22;7115;50.150;8.568;2023-05-14T11:10:56;20.60;96.40
14079;DHT22;7115;50.150;8.568;2023-05-14T11:13:25;20.70;96.40
14079;DHT22;7115;50.150;8.568;2023-05-14T11:15:52;20.70;96.30
14079;DHT22;7115;50.150;8.568;2023-05-14T11:18:28;20.90;96.30
14079;DHT22;7115;50.150;8.568;2023-05-14T11:20:57;21.10;96.20
14079;DHT22;7115;50.150;8.568;2023-05-14T11:23:24;21.40;96.00
14079;DHT22;7115;50.150;8.568;2023-05-14T11:25:52;21.60;95.70
14079;DHT22;7115;50.150;8.568;2023-05-14T11:28:22;21.90;95.50
14079;DHT22;7115;50.150;8.568;2023-05-14T11:30:50;22.10;95.30
14079;DHT22;7115;50.150;8.568;2023-05-14T11:33:18;22.30;95.00
14079;DHT22;7115;50.150;8.568;2023-05-14T11:35:47;22.50;94.80
14079;DHT22;7115;50.150;8.568;2023-05-14T11:38:15;22.70;94.60
14079;DHT22;7115;50.150;8.568;2023-05-14T11:40:42;22.90;94.30
14079;DHT22;7115;50.150;8.568;2023-05-14T11:43:09;23.10;94.00
14079;DHT22;7115;50.150;8.568;2023-05-14T11:45:36;23.10;93.80
14079;DHT22;7115;50.150;8.568;2023-05-14T11:48:11;23.20;93.60
14079;DHT22;7115;50.150;8.568;2023-05-14T11:50:39;23.30;93.60
14079;DHT22;7115;50.150;8.568;2023-05-14T11:53:08;23.50;93.60
14079;DHT22;7115;50.150;8.568;2023-05-14T11:55:35;23.80;93.30
14079;DHT22;7115;50.150;8.568;2023-05-14T11:58:02;24.00;92.80
14079;DHT22;7115;50.150;8.568;2023-05-14T12:00:29;24.10;92.50
14079;DHT22;7115;50.150;8.568;2023-05-14T12:02:57;24.30;92.20
14079;DHT22;7115;50.150;8.568;2023-05-14T12:05:24;24.40;92.00
14079;DHT22;7115;50.150;8.568;2023-05-14T12:07:51;24.50;91.50
14079;DHT22;7115;50.150;8.568;2023-05-14T12:10:19;24.50;91.30
14079;DHT22;7115;50.150;8.568;2023-05-14T12:12:47;24.60;91.10
14079;DHT22;7115;50.150;8.568;2023-05-14T12:15:14;24.60;91.10
14079;DHT22;7115;50.150;8.568;2023-05-14T12:17:48;24.70;91.00
14079;DHT22;7115;50.150;8.568;2023-05-14T12:20:16;24.90;90.60
14079;DHT22;7115;50.150;8.568;2023-05-14T12:22:43;25.10;90.50
14079;DHT22;7115;50.150;8.568;2023-05-14T12:25:11;25.30;90.20
14079;DHT22;7115;50.150;8.568;2023-05-14T12:27:42;25.40;89.90
14079;DHT22;7115;50.150;8.568;2023-05-14T12:30:12;25.60;89.70
14079;DHT22;7115;50.150;8.568;2023-05-14T12:32:59;25.70;89.20
14079;DHT22;7115;50.150;8.568;2023-05-14T12:35:26;25.80;88.60
14079;DHT22;7115;50.150;8.568;2023-05-14T12:37:53;25.90;88.10
14079;DHT22;7115;50.150;8.568;2023-05-14T12:40:20;25.90;87.70
14079;DHT22;7115;50.150;8.568;2023-05-14T12:42:49;25.90;87.40
14079;DHT22;7115;50.150;8.568;2023-05-14T12:45:16;25.70;87.00
14079;DHT22;7115;50.150;8.568;2023-05-14T12:47:43;25.40;86.90
14079;DHT22;7115;50.150;8.568;2023-05-14T12:50:10;25.10;86.90
14079;DHT22;7115;50.150;8.568;2023-05-14T12:52:37;24.70;87.00
14079;DHT22;7115;50.150;8.568;2023-05-14T12:55:06;24.40;87.40
14079;DHT22;7115;50.150;8.568;2023-05-14T12:57:33;24.00;87.80
14079;DHT22;7115;50.150;8.568;2023-05-14T13:00:03;24.00;87.90
14079;DHT22;7115;50.150;8.568;2023-05-14T13:02:34;23.80;87.70
14079;DHT22;7115;50.150;8.568;2023-05-14T13:05:09;23.70;87.40
14079;DHT22;7115;50.150;8.568;2023-05-14T13:07:36;23.70;87.50
14079;DHT22;7115;50.150;8.568;2023-05-14T13:10:04;23.80;87.60
14079;DHT22;7115;50.150;8.568;2023-05-14T13:12:31;23.80;87.50
14079;DHT22;7115;50.150;8.568;2023-05-14T13:14:58;24.00;87.60
14079;DHT22;7115;50.150;8.568;2023-05-14T13:17:27;24.10;87.50
14079;DHT22;7115;50.150;8.568;2023-05-14T13:19:54;24.10;87.30
14079;DHT22;7115;50.150;8.568;2023-05-14T13:22:21;24.10;87.00
14079;DHT22;7115;50.150;8.568;2023-05-14T13:24:47;24.10;86.30
14079;DHT22;7115;50.150;8.568;2023-05-14T13:27:14;24.10;86.30
14079;DHT22;7115;50.150;8.568;2023-05-14T13:29:41;24.10;86.70
14079;DHT22;7115;50.150;8.568;2023-05-14T13:32:08;24.20;86.60
14079;DHT22;7115;50.150;8.568;2023-05-14T13:34:37;24.30;86.30
14079;DHT22;7115;50.150;8.568;2023-05-14T13:37:04;24.30;86.20
14079;DHT22;7115;50.150;8.568;2023-05-14T13:39:30;24.20;85.80
14079;DHT22;7115;50.150;8.568;2023-05-14T13:41:57;24.20;85.40
14079;DHT22;7115;50.150;8.568;2023-05-14T13:44:24;24.20;85.90
14079;DHT22;7115;50.150;8.568;2023-05-14T13:46:51;24.10;85.00
14079;DHT22;7115;50.150;8.568;2023-05-14T13:49:18;24.10;84.90
14079;DHT22;7115;50.150;8.568;2023-05-14T13:51:47;24.10;85.00
14079;DHT22;7115;50.150;8.568;2023-05-14T13:54:14;24.20;84.90
14079;DHT22;7115;50.150;8.568;2023-05-14T13:56:41;24.30;84.80
14079;DHT22;7115;50.150;8.568;2023-05-14T13:59:07;24.40;84.50
14079;DHT22;7115;50.150;8.568;2023-05-14T14:01:34;24.50;84.10
14079;DHT22;7115;50.150;8.568;2023-05-14T14:04:01;24.50;83.70
14079;DHT22;7115;50.150;8.568;2023-05-14T14:06:30;24.50;83.30
14079;DHT22;7115;50.150;8.568;2023-05-14T14:08:59;24.40;83.20
14079;DHT22;7115;50.150;8.568;2023-05-14T14:11:26;24.20;83.30
14079;DHT22;7115;50.150;8.568;2023-05-14T14:13:53;24.10;83.50
14079;DHT22;7115;50.150;8.568;2023-05-14T14:16:20;24.10;83.80
14079;DHT22;7115;50.150;8.568;2023-05-14T14:18:47;24.00;83.80
14079;DHT22;7115;50.150;8.568;2023-05-14T14:21:14;24.00;83.80
14079;DHT22;7115;50.150;8.568;2023-05-14T14:23:45;24.00;83.60
14079;DHT22;7115;50.150;8.568;2023-05-14T14:26:13;23.90;83.10
14079;DHT22;7115;50.150;8.568;2023-05-14T14:28:40;23.80;83.20
14079;DHT22;7115;50.150;8.568;2023-05-14T14:31:07;23.90;84.00
14079;DHT22;7115;50.150;8.568;2023-05-14T14:33:34;24.00;84.40
14079;DHT22;7115;50.150;8.568;2023-05-14T14:36:01;24.00;85.10
14079;DHT22;7115;50.150;8.568;2023-05-14T14:38:28;24.00;84.40
14079;DHT22;7115;50.150;8.568;2023-05-14T14:40:55;24.00;84.40
14079;DHT22;7115;50.150;8.568;2023-05-14T14:43:24;24.10;84.10
14079;DHT22;7115;50.150;8.568;2023-05-14T14:45:51;24.10;83.70
14079;DHT22;7115;50.150;8.568;2023-05-14T14:48:23;24.10;83.30
14079;DHT22;7115;50.150;8.568;2023-05-14T14:50:50;24.00;82.90
14079;DHT22;7115;50.150;8.568;2023-05-14T14:53:17;24.00;83.00
14079;DHT22;7115;50.150;8.568;2023-05-14T14:55:44;24.10;83.30
14079;DHT22;7115;50.150;8.568;2023-05-14T14:58:11;24.10;83.30
14079;DHT22;7115;50.150;8.568;2023-05-14T15:00:40;24.20;83.30
14079;DHT22;7115;50.150;8.568;2023-05-14T15:03:07;24.20;82.70
14079;DHT22;7115;50.150;8.568;2023-05-14T15:05:35;24.20;82.50
14079;DHT22;7115;50.150;8.568;2023-05-14T15:08:02;24.10;82.50
14079;DHT22;7115;50.150;8.568;2023-05-14T15:10:30;24.00;82.40
14079;DHT22;7115;50.150;8.568;2023-05-14T15:12:58;24.00;82.20
14079;DHT22;7115;50.150;8.568;2023-05-14T15:15:25;24.00;81.80
14079;DHT22;7115;50.150;8.568;2023-05-14T15:17:53;23.80;81.40
14079;DHT22;7115;50.150;8.568;2023-05-14T15:20:20;23.80;81.30
14079;DHT22;7115;50.150;8.568;2023-05-14T15:22:47;23.70;81.50
14079;DHT22;7115;50.150;8.568;2023-05-14T15:25:18;23.60;81.60
14079;DHT22;7115;50.150;8.568;2023-05-14T15:27:45;23.50;81.70
14079;DHT22;7115;50.150;8.568;2023-05-14T15:30:13;23.50;81.90
14079;DHT22;7115;50.150;8.568;2023-05-14T15:32:40;23.50;81.90
14079;DHT22;7115;50.150;8.568;2023-05-14T15:35:09;23.50;82.10
14079;DHT22;7115;50.150;8.568;2023-05-14T15:37:37;23.40;82.20
14079;DHT22;7115;50.150;8.568;2023-05-14T15:40:05;23.40;82.60
14079;DHT22;7115;50.150;8.568;2023-05-14T15:42:36;23.40;83.10
14079;DHT22;7115;50.150;8.568;2023-05-14T15:45:04;23.40;83.80
14079;DHT22;7115;50.150;8.568;2023-05-14T15:47:31;23.10;84.50
14079;DHT22;7115;50.150;8.568;2023-05-14T15:49:58;23.30;85.50